Shelby, South Dakota
Current Conditions -  °F | °C
As of 5:55 AM on Saturday 22 Nov 2014 (Local Time) from K9V9 Reporting Station
Clear Clear  
Wind Chill: 20°   Ceiling: Unl
Heat Index: 20°   Visibility: 10mi
Dew Point: 19°   Wind: 0mph
Humidity: 96%   Direction: NA
Pressure: 29.7"   Gusts: NA
Location:  43.7732°N, 99.1697°W
Report Text: K9V9 221155Z AUTO 00000KT 10SM CLR M07/M07 A2970 RMK AO2 T10681074 11009 21075
Loading
Personal Weather Stations






























Interactive Weather Map New forecast layout! Learn more

10-Day Weather Forecast

Advertisements
Track Severe Weather on mobile